sensor_id;sensor_type;location;lat;lon;timestamp;pressure;altitude;pressure_sealevel;temperature;humidity
50103;BME280;35993;52.604;10.078;2023-06-22T00:00:50;101500.53;;;21.23;74.06
50103;BME280;35993;52.604;10.078;2023-06-22T00:03:21;101513.19;;;21.24;73.89
50103;BME280;35993;52.604;10.078;2023-06-22T00:05:47;101508.22;;;21.21;74.02
50103;BME280;35993;52.604;10.078;2023-06-22T00:08:12;101516.47;;;21.10;74.50
50103;BME280;35993;52.604;10.078;2023-06-22T00:10:38;101500.16;;;21.04;74.93
50103;BME280;35993;52.604;10.078;2023-06-22T00:13:05;101501.78;;;21.00;75.36
50103;BME280;35993;52.604;10.078;2023-06-22T00:15:31;101502.31;;;20.97;75.35
50103;BME280;35993;52.604;10.078;2023-06-22T00:17:57;101491.78;;;20.88;75.77
50103;BME280;35993;52.604;10.078;2023-06-22T00:20:23;101500.06;;;20.83;76.32
50103;BME280;35993;52.604;10.078;2023-06-22T00:22:54;101496.41;;;20.77;76.58
50103;BME280;35993;52.604;10.078;2023-06-22T00:25:20;101499.97;;;20.73;77.01
50103;BME280;35993;52.604;10.078;2023-06-22T00:27:45;101508.75;;;20.70;77.45
50103;BME280;35993;52.604;10.078;2023-06-22T00:30:11;101508.19;;;20.68;77.44
50103;BME280;35993;52.604;10.078;2023-06-22T00:32:37;101516.41;;;20.62;77.89
50103;BME280;35993;52.604;10.078;2023-06-22T00:35:02;101518.34;;;20.62;77.92
50103;BME280;35993;52.604;10.078;2023-06-22T00:37:29;101513.94;;;20.61;78.16
50103;BME280;35993;52.604;10.078;2023-06-22T00:39:55;101523.56;;;20.58;78.25
50103;BME280;35993;52.604;10.078;2023-06-22T00:42:21;101525.19;;;20.54;78.68
50103;BME280;35993;52.604;10.078;2023-06-22T00:44:47;101526.56;;;20.52;78.80
50103;BME280;35993;52.604;10.078;2023-06-22T00:47:17;101523.22;;;20.50;78.89
50103;BME280;35993;52.604;10.078;2023-06-22T00:49:43;101527.13;;;20.54;79.13
50103;BME280;35993;52.604;10.078;2023-06-22T00:52:10;101526.25;;;20.48;79.23
50103;BME280;35993;52.604;10.078;2023-06-22T00:54:42;101517.94;;;20.43;79.45
50103;BME280;35993;52.604;10.078;2023-06-22T00:57:13;101531.50;;;20.50;78.72
50103;BME280;35993;52.604;10.078;2023-06-22T00:59:45;101531.09;;;20.36;79.42
50103;BME280;35993;52.604;10.078;2023-06-22T01:02:11;101520.00;;;20.25;80.42
50103;BME280;35993;52.604;10.078;2023-06-22T01:04:39;101510.69;;;20.32;79.95
50103;BME280;35993;52.604;10.078;2023-06-22T01:07:20;101517.00;;;20.27;80.31
50103;BME280;35993;52.604;10.078;2023-06-22T01:10:24;101518.03;;;20.21;80.69
50103;BME280;35993;52.604;10.078;2023-06-22T01:12:57;101507.47;;;20.12;81.27
50103;BME280;35993;52.604;10.078;2023-06-22T01:15:33;101505.75;;;20.06;81.60
50103;BME280;35993;52.604;10.078;2023-06-22T01:18:04;101498.03;;;20.03;81.91
50103;BME280;35993;52.604;10.078;2023-06-22T01:20:34;101496.09;;;20.04;81.76
50103;BME280;35993;52.604;10.078;2023-06-22T01:29:05;101481.31;;;19.83;82.84
50103;BME280;35993;52.604;10.078;2023-06-22T01:31:33;101481.88;;;19.85;82.52
50103;BME280;35993;52.604;10.078;2023-06-22T01:34:03;101481.03;;;19.84;82.16
50103;BME280;35993;52.604;10.078;2023-06-22T01:36:31;101486.28;;;19.86;81.97
50103;BME280;35993;52.604;10.078;2023-06-22T01:38:58;101474.44;;;19.85;81.56
50103;BME280;35993;52.604;10.078;2023-06-22T01:41:26;101478.16;;;19.74;82.09
50103;BME280;35993;52.604;10.078;2023-06-22T01:43:53;101464.06;;;19.70;82.48
50103;BME280;35993;52.604;10.078;2023-06-22T01:46:20;101457.97;;;19.63;82.59
50103;BME280;35993;52.604;10.078;2023-06-22T01:48:46;101460.44;;;19.64;82.67
50103;BME280;35993;52.604;10.078;2023-06-22T01:51:13;101461.53;;;19.63;82.61
50103;BME280;35993;52.604;10.078;2023-06-22T01:53:39;101464.81;;;19.60;82.38
50103;BME280;35993;52.604;10.078;2023-06-22T01:56:04;101465.59;;;19.56;82.63
50103;BME280;35993;52.604;10.078;2023-06-22T01:58:31;101470.78;;;19.52;83.07
50103;BME280;35993;52.604;10.078;2023-06-22T02:01:09;101466.25;;;19.41;83.54
50103;BME280;35993;52.604;10.078;2023-06-22T02:03:38;101468.94;;;19.36;83.84
50103;BME280;35993;52.604;10.078;2023-06-22T02:06:08;101477.47;;;19.34;84.48
50103;BME280;35993;52.604;10.078;2023-06-22T02:08:55;101473.31;;;19.31;84.27
50103;BME280;35993;52.604;10.078;2023-06-22T02:11:23;101462.50;;;19.25;84.84
50103;BME280;35993;52.604;10.078;2023-06-22T02:13:53;101464.13;;;19.26;84.73
50103;BME280;35993;52.604;10.078;2023-06-22T02:16:19;101461.66;;;19.24;84.59
50103;BME280;35993;52.604;10.078;2023-06-22T02:18:49;101464.41;;;19.24;84.63
50103;BME280;35993;52.604;10.078;2023-06-22T02:21:18;101464.66;;;19.23;84.55
50103;BME280;35993;52.604;10.078;2023-06-22T02:23:46;101468.16;;;19.18;85.01
50103;BME280;35993;52.604;10.078;2023-06-22T02:26:12;101470.94;;;19.18;84.92
50103;BME280;35993;52.604;10.078;2023-06-22T02:28:38;101472.03;;;19.17;84.86
50103;BME280;35993;52.604;10.078;2023-06-22T02:31:04;101472.59;;;19.19;84.73
50103;BME280;35993;52.604;10.078;2023-06-22T02:33:29;101472.09;;;19.22;84.24
50103;BME280;35993;52.604;10.078;2023-06-22T02:35:55;101471.25;;;19.22;84.03
50103;BME280;35993;52.604;10.078;2023-06-22T02:38:21;101476.38;;;19.13;84.46
50103;BME280;35993;52.604;10.078;2023-06-22T02:40:51;101483.22;;;19.10;84.41
50103;BME280;35993;52.604;10.078;2023-06-22T02:43:16;101482.84;;;19.24;84.08
50103;BME280;35993;52.604;10.078;2023-06-22T02:45:43;101481.69;;;19.20;84.16
50103;BME280;35993;52.604;10.078;2023-06-22T02:48:10;101489.56;;;19.11;84.69
50103;BME280;35993;52.604;10.078;2023-06-22T02:50:36;101492.25;;;19.06;85.32
50103;BME280;35993;52.604;10.078;2023-06-22T02:53:02;101494.94;;;19.01;85.77
50103;BME280;35993;52.604;10.078;2023-06-22T02:55:32;101496.91;;;19.05;85.07
50103;BME280;35993;52.604;10.078;2023-06-22T02:57:58;101498.09;;;19.09;84.43
50103;BME280;35993;52.604;10.078;2023-06-22T03:00:26;101504.41;;;19.10;84.29
50103;BME280;35993;52.604;10.078;2023-06-22T03:02:57;101506.63;;;19.13;84.13
50103;BME280;35993;52.604;10.078;2023-06-22T03:05:23;101515.41;;;19.10;84.22
50103;BME280;35993;52.604;10.078;2023-06-22T03:07:49;101523.34;;;19.06;84.24
50103;BME280;35993;52.604;10.078;2023-06-22T03:10:16;101517.50;;;19.03;84.67
50103;BME280;35993;52.604;10.078;2023-06-22T03:12:42;101520.53;;;19.01;84.72
50103;BME280;35993;52.604;10.078;2023-06-22T03:15:10;101530.88;;;18.94;85.38
50103;BME280;35993;52.604;10.078;2023-06-22T03:17:37;101531.13;;;18.92;90.24
50103;BME280;35993;52.604;10.078;2023-06-22T03:20:05;101525.78;;;18.86;90.92
50103;BME280;35993;52.604;10.078;2023-06-22T03:22:35;101526.97;;;18.73;93.01
50103;BME280;35993;52.604;10.078;2023-06-22T03:25:01;101526.06;;;18.67;93.08
50103;BME280;35993;52.604;10.078;2023-06-22T03:27:27;101529.66;;;18.67;91.75
50103;BME280;35993;52.604;10.078;2023-06-22T03:29:53;101524.03;;;18.79;89.23
50103;BME280;35993;52.604;10.078;2023-06-22T03:32:18;101522.31;;;18.90;87.66
50103;BME280;35993;52.604;10.078;2023-06-22T03:34:44;101527.44;;;18.87;88.14
50103;BME280;35993;52.604;10.078;2023-06-22T03:37:13;101539.88;;;18.89;88.59
50103;BME280;35993;52.604;10.078;2023-06-22T03:39:41;101536.78;;;18.86;88.11
50103;BME280;35993;52.604;10.078;2023-06-22T03:42:07;101534.63;;;18.88;88.15
50103;BME280;35993;52.604;10.078;2023-06-22T03:44:34;101535.13;;;18.84;88.05
50103;BME280;35993;52.604;10.078;2023-06-22T03:47:03;101535.38;;;18.83;88.02
50103;BME280;35993;52.604;10.078;2023-06-22T03:49:29;101544.97;;;18.80;88.02
50103;BME280;35993;52.604;10.078;2023-06-22T03:51:55;101541.47;;;18.85;87.76
50103;BME280;35993;52.604;10.078;2023-06-22T03:54:20;101539.78;;;18.84;87.41
50103;BME280;35993;52.604;10.078;2023-06-22T03:56:46;101535.13;;;18.84;87.94
50103;BME280;35993;52.604;10.078;2023-06-22T03:59:11;101531.53;;;18.84;87.41
50103;BME280;35993;52.604;10.078;2023-06-22T04:01:37;101537.47;;;18.93;86.95
50103;BME280;35993;52.604;10.078;2023-06-22T04:04:02;101542.41;;;18.91;87.10
50103;BME280;35993;52.604;10.078;2023-06-22T04:06:28;101542.03;;;18.87;87.37
50103;BME280;35993;52.604;10.078;2023-06-22T04:08:54;101546.03;;;18.79;86.96
50103;BME280;35993;52.604;10.078;2023-06-22T04:11:19;101536.13;;;18.78;87.11
50103;BME280;35993;52.604;10.078;2023-06-22T04:13:45;101531.81;;;18.82;87.09
50103;BME280;35993;52.604;10.078;2023-06-22T04:16:10;101537.78;;;18.79;86.67
50103;BME280;35993;52.604;10.078;2023-06-22T04:18:36;101541.47;;;18.85;86.39
50103;BME280;35993;52.604;10.078;2023-06-22T04:21:02;101541.22;;;18.87;86.50
50103;BME280;35993;52.604;10.078;2023-06-22T04:23:27;101533.88;;;18.92;86.21
50103;BME280;35993;52.604;10.078;2023-06-22T04:25:53;101537.63;;;19.03;85.94
50103;BME280;35993;52.604;10.078;2023-06-22T04:28:19;101537.69;;;19.08;85.04
50103;BME280;35993;52.604;10.078;2023-06-22T04:30:44;101535.50;;;19.10;85.13
50103;BME280;35993;52.604;10.078;2023-06-22T04:33:14;101531.25;;;19.20;84.99
50103;BME280;35993;52.604;10.078;2023-06-22T04:35:40;101531.13;;;19.31;83.88
50103;BME280;35993;52.604;10.078;2023-06-22T04:38:08;101531.75;;;19.39;82.84
50103;BME280;35993;52.604;10.078;2023-06-22T04:40:34;101513.31;;;19.39;82.43
50103;BME280;35993;52.604;10.078;2023-06-22T04:42:59;101521.56;;;19.39;82.99
50103;BME280;35993;52.604;10.078;2023-06-22T04:45:28;101513.63;;;19.43;82.59
50103;BME280;35993;52.604;10.078;2023-06-22T04:47:54;101517.31;;;19.54;82.29
50103;BME280;35993;52.604;10.078;2023-06-22T04:50:20;101519.75;;;19.72;81.47
50103;BME280;35993;52.604;10.078;2023-06-22T04:52:47;101523.19;;;19.85;80.21
50103;BME280;35993;52.604;10.078;2023-06-22T04:55:14;101529.47;;;19.80;81.24
50103;BME280;35993;52.604;10.078;2023-06-22T04:57:45;101525.94;;;19.85;80.23
50103;BME280;35993;52.604;10.078;2023-06-22T05:00:18;101527.44;;;19.92;80.02
50103;BME280;35993;52.604;10.078;2023-06-22T05:02:46;101526.78;;;20.12;79.65
50103;BME280;35993;52.604;10.078;2023-06-22T05:05:13;101533.09;;;20.40;78.81
50103;BME280;35993;52.604;10.078;2023-06-22T05:07:46;101531.03;;;20.58;78.00
50103;BME280;35993;52.604;10.078;2023-06-22T05:10:14;101529.97;;;20.64;76.56
50103;BME280;35993;52.604;10.078;2023-06-22T05:12:40;101534.13;;;20.67;76.69
50103;BME280;35993;52.604;10.078;2023-06-22T05:15:07;101536.56;;;20.63;76.45
50103;BME280;35993;52.604;10.078;2023-06-22T05:17:34;101533.38;;;20.76;76.41
50103;BME280;35993;52.604;10.078;2023-06-22T05:20:00;101527.59;;;20.78;76.04
50103;BME280;35993;52.604;10.078;2023-06-22T05:22:25;101529.84;;;20.86;75.39
50103;BME280;35993;52.604;10.078;2023-06-22T05:24:51;101525.19;;;20.92;74.85
50103;BME280;35993;52.604;10.078;2023-06-22T05:27:17;101524.44;;;21.07;74.57
50103;BME280;35993;52.604;10.078;2023-06-22T05:29:42;101526.97;;;21.19;74.33
50103;BME280;35993;52.604;10.078;2023-06-22T05:32:08;101522.88;;;21.26;73.85
50103;BME280;35993;52.604;10.078;2023-06-22T05:34:34;101521.84;;;21.43;73.30
50103;BME280;35993;52.604;10.078;2023-06-22T05:36:59;101518.81;;;21.44;72.41
50103;BME280;35993;52.604;10.078;2023-06-22T05:39:25;101515.53;;;21.53;72.45
50103;BME280;35993;52.604;10.078;2023-06-22T05:41:51;101507.59;;;21.67;71.78
50103;BME280;35993;52.604;10.078;2023-06-22T05:44:18;101515.63;;;21.84;71.52
50103;BME280;35993;52.604;10.078;2023-06-22T05:46:44;101501.53;;;21.85;71.33
50103;BME280;35993;52.604;10.078;2023-06-22T05:49:12;101506.81;;;21.82;70.55
50103;BME280;35993;52.604;10.078;2023-06-22T05:51:39;101502.09;;;21.87;70.42
50103;BME280;35993;52.604;10.078;2023-06-22T05:54:04;101506.25;;;21.90;70.92
50103;BME280;35993;52.604;10.078;2023-06-22T05:56:30;101505.16;;;21.91;71.40
50103;BME280;35993;52.604;10.078;2023-06-22T05:58:56;101501.00;;;21.88;71.64
50103;BME280;35993;52.604;10.078;2023-06-22T06:01:21;101502.66;;;21.84;71.81
50103;BME280;35993;52.604;10.078;2023-06-22T06:03:47;101500.16;;;21.83;71.28
50103;BME280;35993;52.604;10.078;2023-06-22T06:06:15;101504.06;;;21.92;71.43
50103;BME280;35993;52.604;10.078;2023-06-22T06:08:40;101505.44;;;21.95;70.95
50103;BME280;35993;52.604;10.078;2023-06-22T06:11:06;101512.59;;;22.01;71.17
50103;BME280;35993;52.604;10.078;2023-06-22T06:13:32;101512.88;;;21.99;70.74
50103;BME280;35993;52.604;10.078;2023-06-22T06:15:57;101510.41;;;21.98;70.81
50103;BME280;35993;52.604;10.078;2023-06-22T06:18:24;101505.69;;;22.03;71.25
50103;BME280;35993;52.604;10.078;2023-06-22T06:20:50;101505.16;;;22.27;70.53
50103;BME280;35993;52.604;10.078;2023-06-22T06:23:15;101499.91;;;22.56;69.44
50103;BME280;35993;52.604;10.078;2023-06-22T06:25:41;101503.47;;;22.88;68.33
50103;BME280;35993;52.604;10.078;2023-06-22T06:28:06;101491.50;;;22.98;67.37
50103;BME280;35993;52.604;10.078;2023-06-22T06:30:32;101491.44;;;23.23;66.60
50103;BME280;35993;52.604;10.078;2023-06-22T06:32:58;101495.53;;;23.36;65.82
50103;BME280;35993;52.604;10.078;2023-06-22T06:35:23;101491.91;;;23.41;66.14
50103;BME280;35993;52.604;10.078;2023-06-22T06:37:50;101492.41;;;23.53;66.03
50103;BME280;35993;52.604;10.078;2023-06-22T06:40:18;101497.88;;;23.64;65.79
50103;BME280;35993;52.604;10.078;2023-06-22T06:42:45;101486.47;;;23.70;65.31
50103;BME280;35993;52.604;10.078;2023-06-22T06:47:43;101480.41;;;23.68;65.56
50103;BME280;35993;52.604;10.078;2023-06-22T06:50:09;101489.75;;;23.78;65.28
50103;BME280;35993;52.604;10.078;2023-06-22T06:52:35;101483.84;;;23.89;65.21
50103;BME280;35993;52.604;10.078;2023-06-22T06:55:01;101477.09;;;24.06;65.02
50103;BME280;35993;52.604;10.078;2023-06-22T06:57:27;101480.13;;;24.10;65.16
50103;BME280;35993;52.604;10.078;2023-06-22T06:59:55;101467.53;;;24.23;64.73
50103;BME280;35993;52.604;10.078;2023-06-22T07:02:22;101475.81;;;24.28;64.31
50103;BME280;35993;52.604;10.078;2023-06-22T07:04:47;101477.63;;;24.43;64.19
50103;BME280;35993;52.604;10.078;2023-06-22T07:07:14;101477.63;;;24.43;63.96
50103;BME280;35993;52.604;10.078;2023-06-22T07:09:39;101485.94;;;24.43;63.63
50103;BME280;35993;52.604;10.078;2023-06-22T07:12:05;101479.78;;;24.46;63.26
50103;BME280;35993;52.604;10.078;2023-06-22T07:14:31;101475.25;;;24.55;63.32
50103;BME280;35993;52.604;10.078;2023-06-22T07:16:57;101477.63;;;24.72;63.04
50103;BME280;35993;52.604;10.078;2023-06-22T07:19:27;101473.19;;;24.71;62.63
50103;BME280;35993;52.604;10.078;2023-06-22T07:21:54;101473.47;;;24.69;62.08
50103;BME280;35993;52.604;10.078;2023-06-22T07:24:20;101468.44;;;24.72;62.09
50103;BME280;35993;52.604;10.078;2023-06-22T07:26:49;101465.16;;;24.69;62.19
50103;BME280;35993;52.604;10.078;2023-06-22T07:29:17;101468.09;;;24.78;62.43
50103;BME280;35993;52.604;10.078;2023-06-22T07:31:44;101476.78;;;24.96;62.35
50103;BME280;35993;52.604;10.078;2023-06-22T07:34:10;101471.56;;;25.13;61.84
50103;BME280;35993;52.604;10.078;2023-06-22T07:36:36;101470.88;;;25.22;61.40
50103;BME280;35993;52.604;10.078;2023-06-22T07:39:02;101470.75;;;25.32;61.62
50103;BME280;35993;52.604;10.078;2023-06-22T07:41:28;101473.84;;;25.30;61.53
50103;BME280;35993;52.604;10.078;2023-06-22T07:43:54;101471.97;;;25.26;61.42
50103;BME280;35993;52.604;10.078;2023-06-22T07:46:19;101465.47;;;25.35;61.18
50103;BME280;35993;52.604;10.078;2023-06-22T07:48:45;101471.56;;;25.57;60.87
50103;BME280;35993;52.604;10.078;2023-06-22T07:51:10;101473.41;;;25.80;61.04
50103;BME280;35993;52.604;10.078;2023-06-22T07:53:39;101471.91;;;25.69;61.11
50103;BME280;35993;52.604;10.078;2023-06-22T07:56:05;101468.25;;;25.74;60.95
50103;BME280;35993;52.604;10.078;2023-06-22T07:58:32;101469.34;;;25.92;61.01
50103;BME280;35993;52.604;10.078;2023-06-22T08:00:59;101465.84;;;26.05;60.58
50103;BME280;35993;52.604;10.078;2023-06-22T08:03:24;101463.91;;;26.20;60.44
50103;BME280;35993;52.604;10.078;2023-06-22T08:05:50;101466.81;;;26.28;60.47
50103;BME280;35993;52.604;10.078;2023-06-22T08:08:15;101473.13;;;26.34;60.11
50103;BME280;35993;52.604;10.078;2023-06-22T08:10:42;101454.75;;;26.33;60.09
50103;BME280;35993;52.604;10.078;2023-06-22T08:13:08;101460.94;;;26.30;59.76
50103;BME280;35993;52.604;10.078;2023-06-22T08:15:33;101451.19;;;26.46;59.42
50103;BME280;35993;52.604;10.078;2023-06-22T08:17:59;101448.41;;;26.46;59.26
50103;BME280;35993;52.604;10.078;2023-06-22T08:20:26;101438.81;;;26.53;58.94
50103;BME280;35993;52.604;10.078;2023-06-22T08:22:53;101443.56;;;26.52;58.85
50103;BME280;35993;52.604;10.078;2023-06-22T08:25:19;101439.97;;;26.65;58.71
50103;BME280;35993;52.604;10.078;2023-06-22T08:27:45;101447.63;;;26.74;58.44
50103;BME280;35993;52.604;10.078;2023-06-22T08:30:13;101444.94;;;26.82;58.30
50103;BME280;35993;52.604;10.078;2023-06-22T08:32:38;101457.63;;;27.03;58.21
50103;BME280;35993;52.604;10.078;2023-06-22T08:35:04;101455.03;;;27.06;57.45
50103;BME280;35993;52.604;10.078;2023-06-22T08:37:32;101452.16;;;27.11;56.96
50103;BME280;35993;52.604;10.078;2023-06-22T08:40:03;101458.22;;;26.99;56.77
50103;BME280;35993;52.604;10.078;2023-06-22T08:42:36;101451.31;;;27.11;57.02
50103;BME280;35993;52.604;10.078;2023-06-22T08:45:02;101450.03;;;27.31;56.37
50103;BME280;35993;52.604;10.078;2023-06-22T08:47:28;101435.91;;;27.27;56.25
50103;BME280;35993;52.604;10.078;2023-06-22T08:49:54;101445.03;;;27.05;56.93
50103;BME280;35993;52.604;10.078;2023-06-22T08:52:20;101445.97;;;26.87;56.96
50103;BME280;35993;52.604;10.078;2023-06-22T08:54:46;101443.38;;;26.76;57.34
50103;BME280;35993;52.604;10.078;2023-06-22T08:57:12;101440.91;;;26.75;57.32
50103;BME280;35993;52.604;10.078;2023-06-22T08:59:37;101446.56;;;26.70;57.55
50103;BME280;35993;52.604;10.078;2023-06-22T09:02:03;101448.84;;;26.54;57.74
50103;BME280;35993;52.604;10.078;2023-06-22T09:04:28;101443.56;;;26.52;58.06
50103;BME280;35993;52.604;10.078;2023-06-22T09:06:54;101441.44;;;26.77;57.37
50103;BME280;35993;52.604;10.078;2023-06-22T09:09:21;101435.13;;;26.99;56.75
50103;BME280;35993;52.604;10.078;2023-06-22T09:11:47;101436.44;;;27.15;56.39
50103;BME280;35993;52.604;10.078;2023-06-22T09:14:12;101424.50;;;27.52;55.29
50103;BME280;35993;52.604;10.078;2023-06-22T09:16:38;101411.72;;;27.73;54.28
50103;BME280;35993;52.604;10.078;2023-06-22T09:19:04;101411.31;;;27.89;53.92
50103;BME280;35993;52.604;10.078;2023-06-22T09:21:29;101424.25;;;27.62;54.05
50103;BME280;35993;52.604;10.078;2023-06-22T09:23:55;101409.94;;;27.77;53.88
50103;BME280;35993;52.604;10.078;2023-06-22T09:26:21;101407.88;;;28.06;53.65
50103;BME280;35993;52.604;10.078;2023-06-22T09:28:46;101398.38;;;27.93;53.10
50103;BME280;35993;52.604;10.078;2023-06-22T09:31:12;101395.09;;;27.68;54.04
50103;BME280;35993;52.604;10.078;2023-06-22T09:33:40;101385.75;;;27.95;53.56
50103;BME280;35993;52.604;10.078;2023-06-22T09:36:06;101387.72;;;28.18;53.21
50103;BME280;35993;52.604;10.078;2023-06-22T09:38:36;101386.06;;;28.17;53.04
50103;BME280;35993;52.604;10.078;2023-06-22T09:41:01;101391.75;;;28.03;53.51
50103;BME280;35993;52.604;10.078;2023-06-22T09:43:27;101390.13;;;27.88;53.80
50103;BME280;35993;52.604;10.078;2023-06-22T09:45:53;101391.75;;;28.03;53.66
50103;BME280;35993;52.604;10.078;2023-06-22T09:48:18;101390.53;;;27.95;53.51
50103;BME280;35993;52.604;10.078;2023-06-22T09:50:44;101384.88;;;27.63;54.02
50103;BME280;35993;52.604;10.078;2023-06-22T09:53:09;101388.91;;;27.49;54.36
50103;BME280;35993;52.604;10.078;2023-06-22T09:55:35;101381.22;;;27.54;54.62
50103;BME280;35993;52.604;10.078;2023-06-22T09:58:00;101381.94;;;27.60;55.29
50103;BME280;35993;52.604;10.078;2023-06-22T10:00:26;101370.78;;;27.60;55.43
50103;BME280;35993;52.604;10.078;2023-06-22T10:02:52;101367.66;;;27.61;55.03
50103;BME280;35993;52.604;10.078;2023-06-22T10:05:17;101374.81;;;27.54;55.08
50103;BME280;35993;52.604;10.078;2023-06-22T10:07:43;101380.09;;;27.55;55.44
50103;BME280;35993;52.604;10.078;2023-06-22T10:10:10;101374.38;;;27.60;55.42
50103;BME280;35993;52.604;10.078;2023-06-22T10:12:36;101365.56;;;27.67;54.72
50103;BME280;35993;52.604;10.078;2023-06-22T10:15:02;101369.66;;;27.92;54.56
50103;BME280;35993;52.604;10.078;2023-06-22T10:17:28;101363.41;;;27.87;54.38
50103;BME280;35993;52.604;10.078;2023-06-22T10:19:53;101370.06;;;27.77;54.71
50103;BME280;35993;52.604;10.078;2023-06-22T10:22:19;101362.34;;;27.74;54.50
50103;BME280;35993;52.604;10.078;2023-06-22T10:24:44;101363.66;;;27.76;54.72
50103;BME280;35993;52.604;10.078;2023-06-22T10:27:11;101370.44;;;27.84;54.93
50103;BME280;35993;52.604;10.078;2023-06-22T10:29:37;101375.44;;;27.73;55.50
50103;BME280;35993;52.604;10.078;2023-06-22T10:32:03;101381.16;;;27.68;55.84
50103;BME280;35993;52.604;10.078;2023-06-22T10:34:29;101371.25;;;27.62;55.64
50103;BME280;35993;52.604;10.078;2023-06-22T10:36:54;101375.41;;;27.42;55.89
50103;BME280;35993;52.604;10.078;2023-06-22T10:39:20;101368.38;;;27.44;55.83
50103;BME280;35993;52.604;10.078;2023-06-22T10:41:45;101372.53;;;27.56;55.82
50103;BME280;35993;52.604;10.078;2023-06-22T10:44:11;101360.88;;;27.76;55.59
50103;BME280;35993;52.604;10.078;2023-06-22T10:46:38;101351.00;;;28.02;54.60
50103;BME280;35993;52.604;10.078;2023-06-22T10:49:03;101348.97;;;28.16;54.48
50103;BME280;35993;52.604;10.078;2023-06-22T10:51:29;101344.66;;;28.10;54.72
50103;BME280;35993;52.604;10.078;2023-06-22T10:53:56;101357.50;;;28.20;54.74
50103;BME280;35993;52.604;10.078;2023-06-22T10:56:21;101345.66;;;28.14;54.25
50103;BME280;35993;52.604;10.078;2023-06-22T10:58:47;101352.72;;;28.11;54.81
50103;BME280;35993;52.604;10.078;2023-06-22T11:01:13;101346.75;;;28.04;54.73
50103;BME280;35993;52.604;10.078;2023-06-22T11:03:39;101345.25;;;27.98;54.59
50103;BME280;35993;52.604;10.078;2023-06-22T11:06:04;101341.38;;;27.85;54.42
50103;BME280;35993;52.604;10.078;2023-06-22T11:08:30;101336.31;;;27.87;54.11
50103;BME280;35993;52.604;10.078;2023-06-22T11:10:55;101334.38;;;27.96;54.31
50103;BME280;35993;52.604;10.078;2023-06-22T11:13:21;101326.16;;;27.91;53.48
50103;BME280;35993;52.604;10.078;2023-06-22T11:15:46;101341.22;;;27.82;53.74
50103;BME280;35993;52.604;10.078;2023-06-22T11:18:12;101328.22;;;27.77;53.62
50103;BME280;35993;52.604;10.078;2023-06-22T11:20:37;101329.09;;;27.86;53.81
50103;BME280;35993;52.604;10.078;2023-06-22T11:23:06;101318.91;;;27.82;54.07
50103;BME280;35993;52.604;10.078;2023-06-22T11:25:32;101325.63;;;27.80;54.59
50103;BME280;35993;52.604;10.078;2023-06-22T11:28:02;101327.69;;;27.75;54.64
50103;BME280;35993;52.604;10.078;2023-06-22T11:30:28;101315.22;;;27.72;54.73
50103;BME280;35993;52.604;10.078;2023-06-22T11:32:53;101314.34;;;27.63;55.06
50103;BME280;35993;52.604;10.078;2023-06-22T11:35:19;101318.22;;;27.53;54.93
50103;BME280;35993;52.604;10.078;2023-06-22T11:37:44;101314.16;;;27.59;55.79
50103;BME280;35993;52.604;10.078;2023-06-22T11:40:10;101316.41;;;27.80;55.53
50103;BME280;35993;52.604;10.078;2023-06-22T11:42:36;101312.19;;;27.91;55.50
50103;BME280;35993;52.604;10.078;2023-06-22T11:45:02;101309.13;;;28.02;55.15
50103;BME280;35993;52.604;10.078;2023-06-22T11:47:30;101297.84;;;28.07;54.87
50103;BME280;35993;52.604;10.078;2023-06-22T11:49:55;101301.94;;;28.01;54.91
50103;BME280;35993;52.604;10.078;2023-06-22T11:52:21;101300.59;;;27.98;55.14
50103;BME280;35993;52.604;10.078;2023-06-22T11:54:46;101298.50;;;28.04;55.54
50103;BME280;35993;52.604;10.078;2023-06-22T11:57:12;101295.94;;;28.16;55.00
50103;BME280;35993;52.604;10.078;2023-06-22T11:59:38;101297.13;;;28.24;54.63
50103;BME280;35993;52.604;10.078;2023-06-22T12:02:03;101286.97;;;28.37;54.81
50103;BME280;35993;52.604;10.078;2023-06-22T12:04:30;101285.06;;;28.64;54.18
50103;BME280;35993;52.604;10.078;2023-06-22T12:06:56;101280.09;;;28.43;53.94
50103;BME280;35993;52.604;10.078;2023-06-22T12:09:21;101275.16;;;28.49;54.12
50103;BME280;35993;52.604;10.078;2023-06-22T12:11:47;101270.91;;;28.51;54.04
50103;BME280;35993;52.604;10.078;2023-06-22T12:14:13;101265.78;;;28.44;53.77
50103;BME280;35993;52.604;10.078;2023-06-22T12:16:38;101275.34;;;28.61;53.92
50103;BME280;35993;52.604;10.078;2023-06-22T12:19:04;101268.28;;;28.64;53.72
50103;BME280;35993;52.604;10.078;2023-06-22T12:21:29;101250.56;;;28.94;53.23
50103;BME280;35993;52.604;10.078;2023-06-22T12:23:55;101249.56;;;29.17;52.38
50103;BME280;35993;52.604;10.078;2023-06-22T12:26:21;101243.63;;;29.36;51.78
50103;BME280;35993;52.604;10.078;2023-06-22T12:28:47;101241.97;;;29.43;51.65
50103;BME280;35993;52.604;10.078;2023-06-22T12:31:14;101218.75;;;29.52;51.06
50103;BME280;35993;52.604;10.078;2023-06-22T12:33:40;101218.78;;;29.25;51.11
50103;BME280;35993;52.604;10.078;2023-06-22T12:36:05;101225.25;;;29.08;51.56
50103;BME280;35993;52.604;10.078;2023-06-22T12:38:31;101215.38;;;29.02;51.38
50103;BME280;35993;52.604;10.078;2023-06-22T12:40:56;101214.88;;;29.18;51.46
50103;BME280;35993;52.604;10.078;2023-06-22T12:43:22;101212.34;;;29.42;50.88
50103;BME280;35993;52.604;10.078;2023-06-22T12:45:47;101214.22;;;29.21;51.83